createdAt,value
2023-01-18T00:01:19.485Z,13.77
2023-01-18T00:03:46.755Z,11.40
2023-01-18T00:06:14.147Z,10.00
2023-01-18T00:08:42.470Z,8.25
2023-01-18T00:11:15.259Z,7.30
2023-01-18T00:13:42.913Z,6.93
2023-01-18T00:16:21.862Z,6.85
2023-01-18T00:18:57.327Z,6.63
2023-01-18T00:21:26.791Z,6.93
2023-01-18T00:23:55.708Z,8.13
2023-01-18T00:26:22.899Z,7.85
2023-01-18T00:28:49.837Z,7.38
2023-01-18T00:31:20.213Z,8.35
2023-01-18T00:33:49.682Z,10.55
2023-01-18T00:36:17.909Z,10.02
2023-01-18T00:38:51.785Z,10.35
2023-01-18T00:41:20.409Z,11.35
2023-01-18T00:43:47.460Z,12.52
2023-01-18T00:46:27.362Z,12.98
2023-01-18T00:48:55.486Z,12.50
2023-01-18T00:51:24.861Z,12.25
2023-01-18T00:53:51.988Z,11.85
2023-01-18T00:56:25.532Z,12.13
2023-01-18T00:58:52.452Z,20.35
2023-01-18T01:01:19.629Z,15.15
2023-01-18T01:04:05.276Z,12.00
2023-01-18T01:06:44.524Z,12.32
2023-01-18T01:09:25.093Z,12.85
2023-01-18T01:12:12.496Z,10.93
2023-01-18T01:15:03.761Z,10.77
2023-01-18T01:17:53.250Z,10.02
2023-01-18T01:20:39.691Z,9.32
2023-01-18T01:23:43.694Z,9.15
2023-01-18T01:26:11.730Z,9.73
2023-01-18T01:28:39.509Z,9.52
2023-01-18T01:31:14.167Z,9.45
2023-01-18T01:33:41.409Z,8.82
2023-01-18T01:36:15.233Z,11.25
2023-01-18T01:38:42.486Z,9.27
2023-01-18T01:41:21.864Z,9.45
2023-01-18T01:43:54.299Z,8.75
2023-01-18T01:46:32.899Z,9.93
2023-01-18T01:49:26.676Z,10.07
2023-01-18T01:51:58.525Z,10.52
2023-01-18T01:54:42.899Z,8.43
2023-01-18T01:57:18.033Z,13.02
2023-01-18T01:59:55.122Z,13.27
2023-01-18T02:02:22.199Z,20.10
2023-01-18T02:04:54.187Z,19.85
2023-01-18T02:07:28.917Z,17.63
2023-01-18T02:09:57.446Z,15.35
2023-01-18T02:12:25.138Z,16.42
2023-01-18T02:14:54.175Z,13.88
2023-01-18T02:17:34.258Z,13.23
2023-01-18T02:20:42.371Z,13.93
2023-01-18T02:23:34.064Z,15.15
2023-01-18T02:26:36.324Z,14.27
2023-01-18T02:29:11.979Z,15.38
2023-01-18T02:31:55.595Z,15.07
2023-01-18T02:34:41.234Z,14.38
2023-01-18T02:37:42.541Z,14.18
2023-01-18T02:40:39.748Z,13.50
2023-01-18T02:43:29.941Z,13.15
2023-01-18T02:46:18.134Z,12.93
2023-01-18T02:48:47.086Z,13.35
2023-01-18T02:51:14.013Z,13.25
2023-01-18T02:53:44.749Z,13.75
2023-01-18T02:56:44.851Z,14.15
2023-01-18T02:59:17.912Z,13.27
2023-01-18T03:01:49.083Z,14.07
2023-01-18T03:04:31.255Z,12.82
2023-01-18T03:07:11.829Z,15.30
2023-01-18T03:09:42.534Z,14.73
2023-01-18T03:12:46.071Z,15.60
2023-01-18T03:15:47.635Z,15.05
2023-01-18T03:19:02.230Z,18.67
2023-01-18T03:21:48.207Z,24.67
2023-01-18T03:24:18.561Z,29.63
2023-01-18T03:26:56.039Z,27.67
2023-01-18T03:29:42.595Z,33.72
2023-01-18T03:32:35.832Z,42.70
2023-01-18T03:35:16.802Z,40.67
2023-01-18T03:37:47.262Z,39.17
2023-01-18T03:40:20.010Z,38.17
2023-01-18T03:43:11.276Z,33.70
2023-01-18T03:45:44.224Z,25.88
2023-01-18T03:50:54.343Z,23.52
2023-01-18T03:53:35.037Z,24.00
2023-01-18T03:56:10.853Z,23.35
2023-01-18T03:58:37.957Z,23.65
2023-01-18T04:01:05.393Z,23.50
2023-01-18T04:03:34.288Z,27.55
2023-01-18T04:06:05.475Z,31.48
2023-01-18T04:08:32.469Z,36.65
2023-01-18T04:10:59.324Z,38.65
2023-01-18T04:13:26.177Z,32.55
2023-01-18T04:15:53.110Z,32.42
2023-01-18T04:18:20.043Z,32.45
2023-01-18T04:20:47.074Z,32.13
2023-01-18T04:23:14.075Z,30.77
2023-01-18T04:25:40.981Z,29.00
2023-01-18T04:28:07.942Z,28.02
2023-01-18T04:30:34.891Z,27.15
2023-01-18T04:33:02.047Z,25.92
2023-01-18T04:35:29.063Z,25.38
2023-01-18T04:37:55.921Z,23.23
2023-01-18T04:40:22.817Z,22.42
2023-01-18T04:42:54.523Z,22.55
2023-01-18T04:45:21.549Z,25.23
2023-01-18T04:47:48.385Z,25.60
2023-01-18T04:50:15.636Z,27.35
2023-01-18T04:52:42.582Z,27.92
2023-01-18T04:55:11.663Z,34.33
2023-01-18T04:57:38.987Z,31.33
2023-01-18T05:00:08.742Z,31.63
2023-01-18T05:02:35.943Z,28.45
2023-01-18T05:05:04.984Z,26.92
2023-01-18T05:07:33.872Z,26.40
2023-01-18T05:10:01.472Z,23.75
2023-01-18T05:12:29.551Z,22.95
2023-01-18T05:14:56.765Z,26.10
2023-01-18T05:17:27.596Z,24.23
2023-01-18T05:19:55.049Z,24.23
2023-01-18T05:22:23.073Z,23.15
2023-01-18T05:24:50.039Z,23.30
2023-01-18T05:27:17.209Z,23.02
2023-01-18T05:29:44.167Z,25.33
2023-01-18T05:32:11.404Z,24.60
2023-01-18T05:34:38.312Z,30.88
2023-01-18T05:37:05.276Z,30.92
2023-01-18T05:39:32.244Z,36.17
2023-01-18T05:42:00.264Z,39.20
2023-01-18T05:44:27.726Z,43.38
2023-01-18T05:46:54.661Z,41.33
2023-01-18T05:49:21.499Z,36.85
2023-01-18T05:51:48.430Z,33.80
2023-01-18T05:54:15.510Z,36.70
2023-01-18T05:56:42.889Z,34.58
2023-01-18T05:59:09.754Z,30.70
2023-01-18T06:01:36.969Z,28.90
2023-01-18T06:04:03.893Z,25.83
2023-01-18T06:06:32.545Z,26.42
2023-01-18T06:09:01.271Z,26.23
2023-01-18T06:11:28.889Z,27.42
2023-01-18T06:13:55.891Z,28.15
2023-01-18T06:16:22.868Z,27.00
2023-01-18T06:18:49.908Z,28.77
2023-01-18T06:21:17.968Z,28.17
2023-01-18T06:23:44.934Z,28.05
2023-01-18T06:26:11.943Z,28.58
2023-01-18T06:28:38.822Z,28.67
2023-01-18T06:31:08.224Z,28.25
2023-01-18T06:33:35.241Z,26.73
2023-01-18T06:36:02.469Z,28.20
2023-01-18T06:38:30.073Z,28.25
2023-01-18T06:40:57.507Z,31.08
2023-01-18T06:43:24.434Z,28.55
2023-01-18T06:45:56.700Z,26.40
2023-01-18T06:48:25.230Z,28.08
2023-01-18T06:50:55.759Z,27.20
2023-01-18T06:53:22.802Z,28.40
2023-01-18T06:56:10.533Z,28.85
2023-01-18T06:58:37.808Z,30.42
2023-01-18T07:01:05.369Z,33.25
2023-01-18T07:03:33.018Z,35.25
2023-01-18T07:06:02.503Z,36.63
2023-01-18T07:08:31.170Z,38.95
2023-01-18T07:10:59.587Z,38.85
2023-01-18T07:13:26.999Z,39.70
2023-01-18T07:15:58.369Z,38.55
2023-01-18T07:18:26.718Z,39.38
2023-01-18T07:21:10.030Z,35.63
2023-01-18T07:23:40.056Z,34.22
2023-01-18T07:26:11.463Z,34.60
2023-01-18T07:28:38.721Z,34.97
2023-01-18T07:31:07.993Z,34.50
2023-01-18T07:33:36.704Z,34.15
2023-01-18T07:36:06.387Z,33.70
2023-01-18T07:38:34.050Z,34.50
2023-01-18T07:41:04.640Z,36.05
2023-01-18T07:43:33.329Z,35.45
2023-01-18T07:46:03.908Z,34.00
2023-01-18T07:48:31.787Z,36.45
2023-01-18T07:51:02.699Z,37.00
2023-01-18T07:53:31.458Z,37.03
2023-01-18T07:56:04.921Z,36.42
2023-01-18T07:58:31.837Z,36.78
2023-01-18T08:01:15.791Z,39.03
2023-01-18T08:03:45.054Z,36.97
2023-01-18T08:06:16.983Z,35.13
2023-01-18T08:08:44.524Z,34.22
2023-01-18T08:11:12.496Z,34.53
2023-01-18T08:13:39.880Z,33.42
2023-01-18T08:16:11.209Z,33.08
2023-01-18T08:18:38.989Z,33.83
2023-01-18T08:21:08.851Z,33.53
2023-01-18T08:23:37.608Z,35.28
2023-01-18T08:26:05.829Z,34.33
2023-01-18T08:28:33.125Z,35.45
2023-01-18T08:31:16.784Z,35.58
2023-01-18T08:33:48.525Z,33.60
2023-01-18T08:36:22.824Z,32.95
2023-01-18T08:38:55.314Z,32.88
2023-01-18T08:41:28.152Z,33.78
2023-01-18T08:43:56.771Z,32.55
2023-01-18T08:46:24.833Z,31.90
2023-01-18T08:48:54.585Z,31.27
2023-01-18T08:51:23.024Z,32.58
2023-01-18T08:53:51.628Z,30.08
2023-01-18T08:56:20.279Z,30.88
2023-01-18T08:58:47.626Z,31.98
2023-01-18T09:01:14.589Z,35.15
2023-01-18T09:03:42.497Z,39.00
2023-01-18T09:06:12.538Z,36.70
2023-01-18T09:08:40.001Z,36.20
2023-01-18T09:11:10.397Z,36.33
2023-01-18T09:13:47.817Z,37.55
2023-01-18T09:16:26.017Z,36.13
2023-01-18T09:18:55.266Z,43.80
2023-01-18T09:21:22.580Z,39.35
2023-01-18T09:23:50.971Z,40.58
2023-01-18T09:26:20.846Z,40.53
2023-01-18T09:28:52.289Z,37.42
2023-01-18T09:31:22.823Z,48.75
2023-01-18T09:33:53.967Z,38.70
2023-01-18T09:36:26.343Z,37.10
2023-01-18T09:38:55.816Z,38.65
2023-01-18T09:41:43.141Z,37.60
2023-01-18T09:44:29.580Z,33.80
2023-01-18T09:47:23.859Z,35.92
2023-01-18T09:50:15.627Z,35.15
2023-01-18T09:53:17.894Z,36.50
2023-01-18T09:56:07.304Z,31.80
2023-01-18T09:58:58.626Z,31.83
2023-01-18T10:01:32.603Z,32.20
2023-01-18T10:04:17.174Z,27.98
2023-01-18T10:06:55.672Z,27.63
2023-01-18T10:09:34.531Z,28.00
2023-01-18T10:12:15.416Z,27.00
2023-01-18T10:15:00.460Z,24.08
2023-01-18T10:17:38.976Z,24.02
2023-01-18T10:20:29.681Z,30.92
2023-01-18T10:23:04.676Z,24.33
2023-01-18T10:25:52.302Z,22.20
2023-01-18T10:28:45.223Z,24.85
2023-01-18T10:31:39.279Z,23.45
2023-01-18T10:34:19.344Z,24.90
2023-01-18T10:36:57.021Z,25.55
2023-01-18T10:39:30.887Z,26.38
2023-01-18T10:42:05.910Z,24.70
2023-01-18T10:44:33.575Z,40.35
2023-01-18T10:47:03.928Z,68.47
2023-01-18T10:49:43.258Z,28.95
2023-01-18T10:52:31.563Z,23.23
2023-01-18T10:55:02.900Z,25.52
2023-01-18T10:57:42.308Z,23.92
2023-01-18T11:00:35.993Z,27.05
2023-01-18T11:03:05.476Z,26.08
2023-01-18T11:05:39.957Z,24.08
2023-01-18T11:08:32.822Z,24.90
2023-01-18T11:11:03.725Z,25.55
2023-01-18T11:13:39.649Z,23.85
2023-01-18T11:16:21.541Z,26.85
2023-01-18T11:19:03.113Z,23.83
2023-01-18T11:21:42.387Z,22.77
2023-01-18T11:24:34.156Z,22.15
2023-01-18T11:27:16.783Z,24.92
2023-01-18T11:29:46.303Z,23.50
2023-01-18T11:32:29.333Z,24.38
2023-01-18T11:35:00.131Z,23.65
2023-01-18T11:37:44.604Z,26.15
2023-01-18T11:40:20.691Z,25.58
2023-01-18T11:42:50.851Z,26.08
2023-01-18T11:45:59.576Z,24.48
2023-01-18T11:48:50.075Z,26.20
2023-01-18T11:51:31.083Z,26.73
2023-01-18T11:54:28.993Z,29.48
2023-01-18T11:57:02.790Z,25.92
2023-01-18T11:59:31.154Z,25.85
2023-01-18T12:02:58.436Z,24.92
2023-01-18T12:05:46.525Z,25.15
2023-01-18T12:08:51.483Z,24.30
2023-01-18T12:11:33.265Z,24.10
2023-01-18T12:14:12.885Z,25.38
2023-01-18T12:16:53.818Z,25.50
2023-01-18T12:19:54.121Z,25.15
2023-01-18T12:22:34.676Z,24.70
2023-01-18T12:25:21.574Z,23.88
2023-01-18T12:28:07.583Z,24.70
2023-01-18T12:31:07.769Z,24.25
2023-01-18T12:34:12.653Z,24.50
2023-01-18T12:37:08.137Z,24.05
2023-01-18T12:40:22.379Z,23.30
2023-01-18T12:43:10.566Z,22.73
2023-01-18T12:46:09.925Z,23.65
2023-01-18T12:49:04.709Z,25.70
2023-01-18T12:51:37.481Z,23.83
2023-01-18T12:56:45.967Z,24.27
2023-01-18T12:59:24.260Z,25.33
2023-01-18T13:02:16.317Z,25.15
2023-01-18T13:04:53.442Z,24.25
2023-01-18T13:07:32.487Z,24.58
2023-01-18T13:10:00.686Z,25.63
2023-01-18T13:12:28.871Z,23.52
2023-01-18T13:15:14.034Z,23.25
2023-01-18T13:17:57.084Z,22.38
2023-01-18T13:23:48.124Z,21.05
2023-01-18T13:26:32.534Z,22.63
2023-01-18T13:29:30.015Z,22.35
2023-01-18T13:31:58.178Z,19.92
2023-01-18T13:34:32.499Z,19.98
2023-01-18T13:37:14.406Z,21.35
2023-01-18T13:39:48.095Z,20.92
2023-01-18T13:44:50.098Z,26.75
2023-01-18T13:47:35.737Z,22.45
2023-01-18T13:50:03.042Z,19.77
2023-01-18T13:52:42.348Z,24.20
2023-01-18T13:55:31.417Z,18.20
2023-01-18T13:57:58.893Z,18.20
2023-01-18T14:00:28.185Z,16.70
2023-01-18T14:03:14.394Z,17.17
2023-01-18T14:05:48.615Z,16.50
2023-01-18T14:08:27.577Z,16.73
2023-01-18T14:11:05.681Z,15.52
2023-01-18T14:13:44.774Z,16.00
2023-01-18T14:16:38.425Z,15.40
2023-01-18T14:19:18.319Z,16.88
2023-01-18T14:22:26.690Z,16.65
2023-01-18T14:25:17.330Z,19.02
2023-01-18T14:27:53.027Z,16.98
2023-01-18T14:30:35.345Z,17.05
2023-01-18T14:33:16.435Z,16.53
2023-01-18T14:36:28.855Z,16.25
2023-01-18T14:39:17.735Z,16.77
2023-01-18T14:41:49.647Z,16.15
2023-01-18T14:44:27.267Z,15.98
2023-01-18T14:46:57.491Z,17.13
2023-01-18T14:49:31.088Z,17.08
2023-01-18T14:51:59.458Z,17.00
2023-01-18T14:54:26.608Z,17.55
2023-01-18T14:57:05.736Z,17.85
2023-01-18T14:59:33.934Z,17.27
2023-01-18T15:02:16.618Z,17.02
2023-01-18T15:04:45.691Z,18.00
2023-01-18T15:07:30.627Z,26.13
2023-01-18T15:09:58.870Z,17.13
2023-01-18T15:12:32.268Z,17.20
2023-01-18T15:15:15.104Z,16.83
2023-01-18T15:17:43.203Z,15.48
2023-01-18T15:20:15.108Z,15.77
2023-01-18T15:22:43.030Z,15.10
2023-01-18T15:25:36.994Z,15.45
2023-01-18T15:28:18.430Z,14.70
2023-01-18T15:30:55.988Z,15.20
2023-01-18T15:33:26.260Z,14.40
2023-01-18T15:36:01.312Z,16.05
2023-01-18T15:38:28.746Z,17.33
2023-01-18T15:41:06.283Z,16.70
2023-01-18T15:43:44.141Z,16.67
2023-01-18T15:46:17.532Z,16.75
2023-01-18T15:48:56.455Z,18.00
2023-01-18T15:51:44.262Z,17.08
2023-01-18T15:54:27.054Z,19.35
2023-01-18T15:57:09.462Z,20.23
2023-01-18T15:59:36.618Z,20.93
2023-01-18T16:02:23.795Z,22.00
2023-01-18T16:05:28.628Z,22.20
2023-01-18T16:08:21.172Z,21.42
2023-01-18T16:10:55.406Z,21.95
2023-01-18T16:13:23.085Z,21.08
2023-01-18T16:16:21.488Z,28.20
2023-01-18T16:19:17.494Z,25.80
2023-01-18T16:21:57.581Z,28.58
2023-01-18T16:24:34.589Z,28.70
2023-01-18T16:27:15.679Z,27.10
2023-01-18T16:29:49.943Z,26.45
2023-01-18T16:32:20.012Z,34.40
2023-01-18T16:34:47.205Z,30.63
2023-01-18T16:37:14.193Z,51.67
2023-01-18T16:39:45.553Z,35.13
2023-01-18T16:42:13.777Z,25.88
2023-01-18T16:44:45.500Z,34.00
2023-01-18T16:47:16.742Z,30.50
2023-01-18T16:49:44.431Z,28.48
2023-01-18T16:52:13.307Z,29.70
2023-01-18T16:54:45.629Z,23.23
2023-01-18T16:57:25.176Z,18.17
2023-01-18T16:59:53.249Z,18.45
2023-01-18T17:02:23.083Z,30.75
2023-01-18T17:04:51.641Z,26.55
2023-01-18T17:07:18.501Z,29.33
2023-01-18T17:09:49.123Z,28.45
2023-01-18T17:12:18.079Z,31.95
2023-01-18T17:14:45.169Z,21.70
2023-01-18T17:17:12.055Z,22.08
2023-01-18T17:19:41.259Z,32.38
2023-01-18T17:22:08.133Z,32.65
2023-01-18T17:24:35.188Z,24.30
2023-01-18T17:27:02.291Z,25.40
2023-01-18T17:29:30.053Z,27.38
2023-01-18T17:32:00.516Z,27.67
2023-01-18T17:34:29.118Z,28.95
2023-01-18T17:36:59.973Z,24.27
2023-01-18T17:39:37.421Z,29.15
2023-01-18T17:42:19.320Z,28.80
2023-01-18T17:45:02.277Z,19.75
2023-01-18T17:47:31.625Z,30.42
2023-01-18T17:50:00.802Z,28.40
2023-01-18T17:52:29.075Z,25.02
2023-01-18T17:54:56.007Z,20.38
2023-01-18T17:57:23.425Z,29.67
2023-01-18T17:59:53.104Z,30.67
2023-01-18T18:02:20.328Z,21.23
2023-01-18T18:04:47.359Z,20.08
2023-01-18T18:07:14.511Z,28.00
2023-01-18T18:09:42.742Z,19.83
2023-01-18T18:12:11.623Z,25.80
2023-01-18T18:14:40.252Z,23.00
2023-01-18T18:17:08.316Z,19.70
2023-01-18T18:19:35.391Z,21.60
2023-01-18T18:22:04.772Z,21.73
2023-01-18T18:24:32.203Z,22.50
2023-01-18T18:27:00.249Z,27.23
2023-01-18T18:29:27.924Z,25.98
2023-01-18T18:31:54.972Z,22.63
2023-01-18T18:34:24.820Z,21.27
2023-01-18T18:36:51.842Z,22.75
2023-01-18T18:39:18.891Z,24.50
2023-01-18T18:41:48.324Z,24.15
2023-01-18T18:44:27.018Z,22.60
2023-01-18T18:47:03.091Z,20.05
2023-01-18T18:49:38.389Z,18.40
2023-01-18T18:52:05.724Z,19.25
2023-01-18T18:54:32.765Z,19.63
2023-01-18T18:57:00.571Z,20.77
2023-01-18T18:59:27.576Z,21.90
2023-01-18T19:01:56.202Z,24.73
2023-01-18T19:04:23.612Z,22.60
2023-01-18T19:06:50.598Z,22.45
2023-01-18T19:09:20.219Z,23.10
2023-01-18T19:11:55.020Z,24.80
2023-01-18T19:14:25.799Z,25.48
2023-01-18T19:16:54.199Z,22.00
2023-01-18T19:19:21.338Z,20.23
2023-01-18T19:21:50.044Z,20.50
2023-01-18T19:24:17.301Z,19.50
2023-01-18T19:26:44.948Z,18.95
2023-01-18T19:29:12.009Z,18.15
2023-01-18T19:31:39.654Z,17.52
2023-01-18T19:34:07.070Z,17.33
2023-01-18T19:36:34.059Z,17.33
2023-01-18T19:39:03.508Z,16.60
2023-01-18T19:41:32.391Z,16.60
2023-01-18T19:43:59.265Z,17.08
2023-01-18T19:46:26.731Z,16.70
2023-01-18T19:48:59.304Z,17.13
2023-01-18T19:51:27.795Z,17.58
2023-01-18T19:53:57.153Z,18.50
2023-01-18T19:56:25.840Z,22.92
2023-01-18T19:58:52.726Z,32.97
2023-01-18T20:01:34.808Z,38.63
2023-01-18T20:04:06.999Z,32.47
2023-01-18T20:06:37.452Z,30.38
2023-01-18T20:09:12.579Z,30.38
2023-01-18T20:11:45.619Z,29.65
2023-01-18T20:14:13.224Z,31.50
2023-01-18T20:16:40.640Z,28.38
2023-01-18T20:19:07.518Z,26.58
2023-01-18T20:21:34.774Z,23.30
2023-01-18T20:24:01.712Z,23.55
2023-01-18T20:26:36.451Z,21.98
2023-01-18T20:29:07.636Z,21.95
2023-01-18T20:31:39.536Z,23.02
2023-01-18T20:34:07.342Z,26.53
2023-01-18T20:36:36.141Z,29.70
2023-01-18T20:39:05.158Z,32.92
2023-01-18T20:41:32.208Z,33.88
2023-01-18T20:43:59.391Z,30.70
2023-01-18T20:46:26.460Z,25.70
2023-01-18T20:48:53.389Z,25.85
2023-01-18T20:51:20.602Z,26.60
2023-01-18T20:53:47.600Z,29.30
2023-01-18T20:56:28.421Z,30.15
2023-01-18T20:58:56.272Z,29.65
2023-01-18T21:01:32.201Z,31.15
2023-01-18T21:04:02.321Z,31.02
2023-01-18T21:06:30.018Z,30.60
2023-01-18T21:08:59.416Z,29.70
2023-01-18T21:11:26.989Z,27.83
2023-01-18T21:13:55.645Z,28.38
2023-01-18T21:16:23.804Z,27.60
2023-01-18T21:18:56.114Z,27.98
2023-01-18T21:21:24.061Z,21.38
2023-01-18T21:23:51.234Z,26.63
2023-01-18T21:26:18.401Z,25.35
2023-01-18T21:28:46.872Z,26.10
2023-01-18T21:31:14.083Z,25.67
2023-01-18T21:33:41.038Z,24.67
2023-01-18T21:36:13.545Z,23.42
2023-01-18T21:38:40.988Z,23.83
2023-01-18T21:41:26.306Z,22.27
2023-01-18T21:44:12.619Z,22.52
2023-01-18T21:46:49.672Z,21.70
2023-01-18T21:49:57.676Z,20.65
2023-01-18T21:52:41.110Z,20.58
2023-01-18T21:55:08.526Z,19.35
2023-01-18T21:57:36.658Z,18.65
2023-01-18T22:00:05.385Z,20.23
2023-01-18T22:02:33.607Z,18.75
2023-01-18T22:05:00.628Z,18.17
2023-01-18T22:07:30.253Z,18.52
2023-01-18T22:10:05.035Z,18.75
2023-01-18T22:12:35.836Z,18.38
2023-01-18T22:15:04.939Z,19.38
2023-01-18T22:17:32.296Z,18.90
2023-01-18T22:19:59.899Z,18.60
2023-01-18T22:22:26.959Z,17.25
2023-01-18T22:24:54.123Z,16.85
2023-01-18T22:27:21.087Z,16.60
2023-01-18T22:29:48.167Z,15.82
2023-01-18T22:32:15.353Z,16.70
2023-01-18T22:34:42.249Z,17.50
2023-01-18T22:37:10.465Z,17.20
2023-01-18T22:39:37.323Z,16.25
2023-01-18T22:42:04.523Z,16.88
2023-01-18T22:44:32.768Z,18.60
2023-01-18T22:46:59.724Z,17.70
2023-01-18T22:49:26.666Z,16.80
2023-01-18T22:51:53.521Z,17.60
2023-01-18T22:54:22.873Z,16.35
2023-01-18T22:56:50.025Z,16.95
2023-01-18T22:59:17.515Z,16.73
2023-01-18T23:01:44.422Z,17.33
2023-01-18T23:04:11.641Z,17.05
2023-01-18T23:06:48.010Z,15.48
2023-01-18T23:09:17.654Z,15.32
2023-01-18T23:11:47.779Z,14.18
2023-01-18T23:14:33.661Z,14.68
2023-01-18T23:17:19.141Z,15.27
2023-01-18T23:19:46.398Z,13.82
2023-01-18T23:22:13.382Z,14.13
2023-01-18T23:24:40.513Z,13.60
2023-01-18T23:27:12.369Z,13.98
2023-01-18T23:29:39.915Z,13.73
2023-01-18T23:32:07.997Z,13.95
2023-01-18T23:34:35.249Z,13.23
2023-01-18T23:37:02.141Z,14.52
2023-01-18T23:39:47.969Z,14.40
2023-01-18T23:42:33.398Z,13.95
2023-01-18T23:45:18.831Z,15.25
2023-01-18T23:48:04.480Z,14.57
2023-01-18T23:50:49.752Z,13.95
2023-01-18T23:53:35.147Z,13.68
2023-01-18T23:56:02.182Z,15.10
2023-01-18T23:58:29.040Z,15.30
